Time;durP1;ratioP1;P1;durP2;ratioP2;P2;SDS_P1;SDS_P2;PMS_P1;PMS_P2;Temp;Humidity;BMP_temperature;BMP_pressure;BME280_temperature;BME280_humidity;BME280_pressure;Samples;Min_cycle;Max_cycle;Signal;HPM_P1;HPM_P2
2022/08/13 00:01:17;;;;;;;1.50;1.40;;;;;;;;;;5093558;28;20061;-81
2022/08/13 00:03:44;;;;;;;3.35;1.50;;;;;;;;;;5092797;28;20024;-81
2022/08/13 00:06:10;;;;;;;1.92;1.63;;;;;;;;;;5092534;28;20032;-81
2022/08/13 00:08:38;;;;;;;3.00;1.73;;;;;;;;;;5096988;28;20110;-81
2022/08/13 00:11:05;;;;;;;3.15;1.52;;;;;;;;;;5115770;28;20020;-81
2022/08/13 00:13:31;;;;;;;1.35;1.25;;;;;;;;;;5096606;28;20424;-79
2022/08/13 00:15:59;;;;;;;4.30;1.67;;;;;;;;;;5097109;28;20031;-81
2022/08/13 00:18:25;;;;;;;1.45;1.30;;;;;;;;;;5097102;28;20469;-81
2022/08/13 00:20:53;;;;;;;1.30;1.20;;;;;;;;;;5080741;28;20038;-80
2022/08/13 00:23:20;;;;;;;1.88;1.40;;;;;;;;;;5095101;28;20043;-80
2022/08/13 00:25:48;;;;;;;2.47;1.52;;;;;;;;;;5086309;28;20145;-81
2022/08/13 00:28:19;;;;;;;1.42;1.20;;;;;;;;;;5097461;28;20514;-80
2022/08/13 00:30:46;;;;;;;1.38;1.27;;;;;;;;;;5097630;28;20452;-81
2022/08/13 00:33:15;;;;;;;2.83;1.40;;;;;;;;;;5090300;28;20039;-80
2022/08/13 00:35:42;;;;;;;2.03;1.52;;;;;;;;;;5097240;28;20721;-81
2022/08/13 00:38:11;;;;;;;1.35;1.25;;;;;;;;;;5115405;28;20031;-81
2022/08/13 00:40:41;;;;;;;1.60;1.50;;;;;;;;;;5115488;28;20336;-80
2022/08/13 00:43:07;;;;;;;1.58;1.38;;;;;;;;;;5115437;28;20027;-80
2022/08/13 00:45:33;;;;;;;3.20;1.30;;;;;;;;;;5097087;28;20031;-81
2022/08/13 00:50:44;;;;;;;2.72;1.27;;;;;;;;;;5095503;28;20080;-80
2022/08/13 00:53:16;;;;;;;1.52;1.40;;;;;;;;;;5095213;28;20020;-80
2022/08/13 00:55:45;;;;;;;2.25;1.40;;;;;;;;;;5085959;28;20110;-80
2022/08/13 00:58:15;;;;;;;1.80;1.35;;;;;;;;;;5096981;28;20078;-83
2022/08/13 01:00:41;;;;;;;2.13;1.40;;;;;;;;;;5094923;28;20084;-84
2022/08/13 01:03:08;;;;;;;1.35;1.25;;;;;;;;;;5096599;28;20377;-80
2022/08/13 01:05:35;;;;;;;5.25;1.50;;;;;;;;;;5096423;28;20542;-81
2022/08/13 01:08:01;;;;;;;2.55;1.50;;;;;;;;;;5096800;28;20027;-83
2022/08/13 01:10:28;;;;;;;4.95;1.40;;;;;;;;;;5096741;28;20026;-81
2022/08/13 01:12:54;;;;;;;3.38;1.40;;;;;;;;;;5096714;28;20027;-82
2022/08/13 01:15:23;;;;;;;3.70;1.50;;;;;;;;;;5112972;28;20465;-83
2022/08/13 01:17:53;;;;;;;2.28;1.58;;;;;;;;;;5114880;28;20024;-83
2022/08/13 01:20:21;;;;;;;1.50;1.33;;;;;;;;;;5094537;28;20084;-82
2022/08/13 01:22:52;;;;;;;1.50;1.40;;;;;;;;;;5096869;28;20027;-80
2022/08/13 01:25:19;;;;;;;2.55;1.55;;;;;;;;;;5113361;28;20060;-82
2022/08/13 01:27:45;;;;;;;1.57;1.47;;;;;;;;;;5095845;28;20115;-80
2022/08/13 01:30:14;;;;;;;3.22;1.52;;;;;;;;;;5096330;28;20256;-81
2022/08/13 01:32:40;;;;;;;1.83;1.60;;;;;;;;;;5096558;28;20047;-81
2022/08/13 01:35:07;;;;;;;2.13;1.50;;;;;;;;;;5093630;28;20031;-80
2022/08/13 01:37:34;;;;;;;2.85;1.40;;;;;;;;;;5096274;28;20024;-81
2022/08/13 01:40:00;;;;;;;2.72;1.40;;;;;;;;;;5094391;28;20019;-81
2022/08/13 01:42:26;;;;;;;4.50;1.50;;;;;;;;;;5096072;28;20031;-83
2022/08/13 01:44:53;;;;;;;2.95;1.20;;;;;;;;;;5113249;28;20048;-82
2022/08/13 01:52:50;;;;;;;2.47;1.70;;;;;;;;;;5102410;28;20089;-83
2022/08/13 01:55:17;;;;;;;3.20;1.40;;;;;;;;;;5095801;28;20386;-83
2022/08/13 01:57:44;;;;;;;1.60;1.50;;;;;;;;;;5095746;28;20024;-84
2022/08/13 02:00:15;;;;;;;1.30;1.20;;;;;;;;;;5113830;28;20023;-84
2022/08/13 02:02:44;;;;;;;1.40;1.30;;;;;;;;;;5114003;28;20019;-83
2022/08/13 02:05:13;;;;;;;1.50;1.40;;;;;;;;;;5113806;28;20054;-82
2022/08/13 02:07:40;;;;;;;2.85;1.30;;;;;;;;;;5095463;28;20028;-83
2022/08/13 02:10:06;;;;;;;1.92;1.17;;;;;;;;;;5113844;28;20354;-81
2022/08/13 02:12:33;;;;;;;1.83;1.30;;;;;;;;;;5095419;28;20054;-83
2022/08/13 02:15:01;;;;;;;2.80;1.35;;;;;;;;;;5113797;28;20074;-83
2022/08/13 02:17:27;;;;;;;1.83;1.50;;;;;;;;;;5113779;28;20411;-84
2022/08/13 02:19:57;;;;;;;3.63;1.60;;;;;;;;;;5093800;28;20047;-80
2022/08/13 02:22:24;;;;;;;5.22;1.70;;;;;;;;;;5113492;28;20095;-80
2022/08/13 02:24:54;;;;;;;1.67;1.58;;;;;;;;;;5093635;28;20500;-81
2022/08/13 02:27:25;;;;;;;2.45;1.60;;;;;;;;;;5095786;28;20114;-81
2022/08/13 02:29:52;;;;;;;3.63;1.80;;;;;;;;;;5112678;28;20427;-80
2022/08/13 02:32:18;;;;;;;1.98;1.55;;;;;;;;;;5113583;28;20520;-80
2022/08/13 02:34:49;;;;;;;2.33;1.35;;;;;;;;;;5111711;28;20103;-81
2022/08/13 02:37:16;;;;;;;1.63;1.33;;;;;;;;;;5113566;28;20032;-82
2022/08/13 02:39:42;;;;;;;1.20;1.10;;;;;;;;;;5092021;28;20153;-80
2022/08/13 02:42:09;;;;;;;1.77;1.02;;;;;;;;;;5094349;28;20114;-82
2022/08/13 02:44:35;;;;;;;1.60;1.20;;;;;;;;;;5093966;28;20027;-81
2022/08/13 02:47:04;;;;;;;1.02;0.90;;;;;;;;;;5094799;28;20115;-81
2022/08/13 02:49:31;;;;;;;1.27;1.17;;;;;;;;;;5112181;28;20459;-80
2022/08/13 02:51:57;;;;;;;4.00;1.70;;;;;;;;;;5094814;28;20028;-80
2022/08/13 02:54:25;;;;;;;1.70;1.30;;;;;;;;;;5092008;28;20395;-82
2022/08/13 02:56:51;;;;;;;2.03;1.30;;;;;;;;;;5113119;28;20474;-80
2022/08/13 02:59:17;;;;;;;3.63;1.50;;;;;;;;;;5092378;28;20062;-80
2022/08/13 03:01:44;;;;;;;2.38;1.63;;;;;;;;;;5093208;28;20426;-81
2022/08/13 03:04:10;;;;;;;1.73;1.52;;;;;;;;;;5094809;28;20067;-81
2022/08/13 03:06:36;;;;;;;2.22;1.60;;;;;;;;;;5112657;28;20222;-80
2022/08/13 03:09:05;;;;;;;2.42;1.45;;;;;;;;;;5094490;28;20458;-80
2022/08/13 03:11:32;;;;;;;2.22;1.40;;;;;;;;;;5094498;28;20423;-81
2022/08/13 03:14:02;;;;;;;1.75;1.63;;;;;;;;;;5094233;28;20023;-81
2022/08/13 03:16:28;;;;;;;1.95;1.40;;;;;;;;;;5112987;28;20027;-82
2022/08/13 03:18:54;;;;;;;2.10;1.30;;;;;;;;;;5094282;28;20119;-80
2022/08/13 03:21:25;;;;;;;2.15;1.40;;;;;;;;;;5087334;28;20020;-81
2022/08/13 03:23:51;;;;;;;1.33;1.23;;;;;;;;;;5088124;28;20020;-80
2022/08/13 03:26:18;;;;;;;2.03;1.33;;;;;;;;;;5088379;28;20101;-80
2022/08/13 03:28:44;;;;;;;1.20;1.10;;;;;;;;;;5092252;28;20066;-80
2022/08/13 03:31:11;;;;;;;1.40;1.30;;;;;;;;;;5079930;28;20024;-80
2022/08/13 03:33:38;;;;;;;1.60;1.30;;;;;;;;;;5094332;28;20274;-80
2022/08/13 03:36:07;;;;;;;1.60;1.20;;;;;;;;;;5093529;28;20102;-81
2022/08/13 03:38:32;;;;;;;3.55;1.20;;;;;;;;;;5094350;28;20016;-81
2022/08/13 03:41:02;;;;;;;1.40;1.25;;;;;;;;;;5093590;28;20115;-81
2022/08/13 03:43:28;;;;;;;1.52;1.40;;;;;;;;;;5098134;28;20015;-80
2022/08/13 03:45:54;;;;;;;1.20;1.10;;;;;;;;;;5097460;28;20355;-81
2022/08/13 03:48:21;;;;;;;1.85;1.35;;;;;;;;;;5098522;28;20020;-80
2022/08/13 03:50:48;;;;;;;2.70;1.80;;;;;;;;;;5097725;28;20031;-81
2022/08/13 03:53:16;;;;;;;2.70;1.48;;;;;;;;;;5116592;28;20102;-81
2022/08/13 03:55:42;;;;;;;4.30;1.30;;;;;;;;;;5096496;28;20020;-80
2022/08/13 03:58:08;;;;;;;1.58;1.20;;;;;;;;;;5098618;28;20477;-80
2022/08/13 04:00:37;;;;;;;3.90;1.40;;;;;;;;;;5096471;28;20034;-80
2022/08/13 04:03:13;;;;;;;1.92;1.30;;;;;;;;;;5115499;28;20027;-80
2022/08/13 04:05:39;;;;;;;1.90;1.30;;;;;;;;;;5114837;28;20037;-80
2022/08/13 04:08:05;;;;;;;1.73;1.30;;;;;;;;;;5116288;28;20408;-82
2022/08/13 04:10:33;;;;;;;1.23;1.20;;;;;;;;;;5116612;28;20053;-81
2022/08/13 04:12:59;;;;;;;3.23;1.27;;;;;;;;;;5097968;28;20377;-80
2022/08/13 04:15:25;;;;;;;2.28;1.20;;;;;;;;;;5096252;28;20260;-82
2022/08/13 04:17:52;;;;;;;1.85;1.40;;;;;;;;;;5116205;28;20055;-81
2022/08/13 04:20:19;;;;;;;2.00;1.42;;;;;;;;;;5096122;28;20030;-81
2022/08/13 04:22:45;;;;;;;2.15;1.65;;;;;;;;;;5097939;28;20016;-80
2022/08/13 04:25:12;;;;;;;2.03;1.10;;;;;;;;;;5093058;28;20494;-80
2022/08/13 04:27:38;;;;;;;1.73;1.25;;;;;;;;;;5092087;28;20115;-81
2022/08/13 04:30:04;;;;;;;1.77;1.30;;;;;;;;;;5080403;28;20081;-81
2022/08/13 04:32:40;;;;;;;2.10;1.20;;;;;;;;;;5095579;28;20050;-81
2022/08/13 04:35:06;;;;;;;1.85;1.27;;;;;;;;;;5095483;28;20023;-81
2022/08/13 04:37:32;;;;;;;2.50;1.20;;;;;;;;;;5094096;28;20031;-80
2022/08/13 04:39:58;;;;;;;2.35;1.40;;;;;;;;;;5093947;28;20049;-81
2022/08/13 04:42:24;;;;;;;1.67;1.27;;;;;;;;;;5095165;28;20023;-80
2022/08/13 04:44:50;;;;;;;1.40;1.30;;;;;;;;;;5093798;28;20436;-80
2022/08/13 04:47:17;;;;;;;1.50;1.20;;;;;;;;;;5093978;28;20030;-81
2022/08/13 04:49:47;;;;;;;3.42;1.38;;;;;;;;;;5093586;28;20020;-81
2022/08/13 04:52:13;;;;;;;1.70;1.30;;;;;;;;;;5093675;28;20028;-80
2022/08/13 04:54:39;;;;;;;2.63;1.30;;;;;;;;;;5094377;28;20045;-80
2022/08/13 04:57:05;;;;;;;2.15;1.30;;;;;;;;;;5091187;28;20462;-81
2022/08/13 04:59:31;;;;;;;1.40;1.30;;;;;;;;;;5093393;28;20093;-80
2022/08/13 05:01:57;;;;;;;1.65;1.40;;;;;;;;;;5092046;28;20024;-80
2022/08/13 05:04:23;;;;;;;1.48;1.30;;;;;;;;;;5094044;28;20032;-81
2022/08/13 05:06:51;;;;;;;2.38;1.75;;;;;;;;;;5092662;28;20118;-81
2022/08/13 05:09:16;;;;;;;1.75;1.40;;;;;;;;;;5093657;28;20030;-80
2022/08/13 05:11:42;;;;;;;1.67;1.40;;;;;;;;;;5092870;28;20028;-80
2022/08/13 05:14:08;;;;;;;1.90;1.30;;;;;;;;;;5093472;28;20470;-82
2022/08/13 05:16:34;;;;;;;1.80;1.30;;;;;;;;;;5091665;28;20039;-80
2022/08/13 05:19:03;;;;;;;2.35;1.40;;;;;;;;;;5094726;28;20440;-81
2022/08/13 05:21:30;;;;;;;1.25;1.15;;;;;;;;;;5092561;28;20031;-82
2022/08/13 05:23:56;;;;;;;1.80;1.50;;;;;;;;;;5094736;28;20047;-80
2022/08/13 05:26:23;;;;;;;2.10;1.52;;;;;;;;;;5111664;28;20075;-80
2022/08/13 05:28:50;;;;;;;2.58;1.55;;;;;;;;;;5096448;28;20421;-81
2022/08/13 05:31:20;;;;;;;2.17;1.30;;;;;;;;;;5114291;28;20047;-80
2022/08/13 05:33:46;;;;;;;2.78;1.52;;;;;;;;;;5096419;28;20030;-81
2022/08/13 05:36:13;;;;;;;1.63;1.40;;;;;;;;;;5094668;28;20076;-81
2022/08/13 05:38:39;;;;;;;3.00;1.33;;;;;;;;;;5096328;28;20019;-81
2022/08/13 05:41:07;;;;;;;2.25;1.75;;;;;;;;;;5112491;28;20053;-81
2022/08/13 05:43:36;;;;;;;2.65;1.45;;;;;;;;;;5114458;28;20106;-80
2022/08/13 05:46:04;;;;;;;1.88;1.48;;;;;;;;;;5095068;28;20163;-81
2022/08/13 05:48:32;;;;;;;2.95;1.63;;;;;;;;;;5095511;28;20026;-80
2022/08/13 05:51:00;;;;;;;2.15;1.70;;;;;;;;;;5114386;28;20522;-82
2022/08/13 05:53:26;;;;;;;1.70;1.60;;;;;;;;;;5111955;28;20020;-84
2022/08/13 05:55:54;;;;;;;4.72;1.50;;;;;;;;;;5095812;28;20056;-84
2022/08/13 05:58:20;;;;;;;2.03;1.45;;;;;;;;;;5113985;28;20031;-84
2022/08/13 06:03:31;;;;;;;1.77;1.60;;;;;;;;;;5110044;28;20055;-83
2022/08/13 06:06:11;;;;;;;1.80;1.40;;;;;;;;;;5094452;28;20058;-84
2022/08/13 06:08:38;;;;;;;2.25;1.42;;;;;;;;;;5113875;28;20488;-82
2022/08/13 06:11:06;;;;;;;2.67;1.50;;;;;;;;;;5095620;28;20027;-82
2022/08/13 06:13:33;;;;;;;2.60;1.70;;;;;;;;;;5113677;28;20080;-80
2022/08/13 06:16:00;;;;;;;1.88;1.50;;;;;;;;;;5095770;28;20023;-81
2022/08/13 06:18:30;;;;;;;1.58;1.40;;;;;;;;;;5095677;28;20024;-81
2022/08/13 06:20:57;;;;;;;1.92;1.55;;;;;;;;;;5093650;28;20027;-81
2022/08/13 06:23:24;;;;;;;2.20;1.65;;;;;;;;;;5094665;28;20016;-80
2022/08/13 06:25:52;;;;;;;1.50;1.40;;;;;;;;;;5093701;28;20048;-81
2022/08/13 06:28:19;;;;;;;1.80;1.58;;;;;;;;;;5095402;28;20089;-81
2022/08/13 06:30:45;;;;;;;3.95;1.70;;;;;;;;;;5112767;28;20031;-80
2022/08/13 06:33:12;;;;;;;2.10;1.60;;;;;;;;;;5113431;28;20016;-81
2022/08/13 06:35:38;;;;;;;1.90;1.38;;;;;;;;;;5111664;28;20029;-80
2022/08/13 06:38:06;;;;;;;1.73;1.50;;;;;;;;;;5113595;28;20023;-83
2022/08/13 06:40:35;;;;;;;2.72;1.42;;;;;;;;;;5093509;28;20020;-83
2022/08/13 06:43:01;;;;;;;;;;;;;;;;;;5095505;28;20435;-81
2022/08/13 06:45:27;;;;;;;3.13;1.48;;;;;;;;;;5093759;28;19961;-81
2022/08/13 06:47:53;;;;;;;1.85;1.25;;;;;;;;;;5094883;28;20031;-83
2022/08/13 06:50:19;;;;;;;3.72;1.25;;;;;;;;;;5112470;28;20080;-81
2022/08/13 06:52:45;;;;;;;1.20;1.10;;;;;;;;;;5094898;28;20122;-82
2022/08/13 06:55:12;;;;;;;2.30;1.40;;;;;;;;;;5111694;28;20051;-82
2022/08/13 06:57:39;;;;;;;1.35;1.10;;;;;;;;;;5094909;28;20031;-84
2022/08/13 07:00:10;;;;;;;1.63;1.40;;;;;;;;;;5092294;28;20016;-83
2022/08/13 07:02:37;;;;;;;1.77;1.20;;;;;;;;;;5112077;28;20103;-84
2022/08/13 07:05:04;;;;;;;2.10;1.50;;;;;;;;;;5093642;28;20034;-83
2022/08/13 07:07:31;;;;;;;2.55;1.20;;;;;;;;;;5112724;28;20381;-84
2022/08/13 07:09:57;;;;;;;2.53;1.20;;;;;;;;;;5094120;28;20098;-83
2022/08/13 07:12:24;;;;;;;2.42;1.30;;;;;;;;;;5112829;28;20028;-80
2022/08/13 07:14:50;;;;;;;2.00;1.02;;;;;;;;;;5093050;28;20114;-81
2022/08/13 07:17:16;;;;;;;4.53;1.25;;;;;;;;;;5092460;28;20154;-81
2022/08/13 07:19:42;;;;;;;2.22;1.08;;;;;;;;;;5085735;28;20511;-80
2022/08/13 07:22:08;;;;;;;2.47;1.40;;;;;;;;;;5094277;28;20024;-81
2022/08/13 07:24:34;;;;;;;5.47;1.35;;;;;;;;;;5094026;28;20024;-80
2022/08/13 07:27:16;;;;;;;1.73;1.42;;;;;;;;;;5109817;27;20952;-79
2022/08/13 07:29:42;;;;;;;1.83;1.33;;;;;;;;;;5110077;28;20027;-79
2022/08/13 07:32:08;;;;;;;2.28;1.67;;;;;;;;;;5109957;28;20027;-80
2022/08/13 07:34:35;;;;;;;4.35;1.80;;;;;;;;;;5125610;27;20020;-80
2022/08/13 07:37:03;;;;;;;2.28;1.70;;;;;;;;;;5109812;28;20031;-81
2022/08/13 07:39:30;;;;;;;2.95;1.88;;;;;;;;;;5125709;27;20026;-81
2022/08/13 07:41:56;;;;;;;2.25;1.40;;;;;;;;;;5091692;28;20027;-81
2022/08/13 07:44:24;;;;;;;4.80;1.48;;;;;;;;;;5107496;28;20088;-80
2022/08/13 07:46:51;;;;;;;2.30;1.55;;;;;;;;;;5109480;28;20028;-82
2022/08/13 07:49:18;;;;;;;3.17;2.42;;;;;;;;;;5107434;28;20031;-80
2022/08/13 07:51:44;;;;;;;2.17;1.77;;;;;;;;;;5107915;28;20020;-81
2022/08/13 07:54:11;;;;;;;3.33;1.90;;;;;;;;;;5108258;28;20500;-81
2022/08/13 07:56:37;;;;;;;6.28;1.50;;;;;;;;;;5109336;28;20481;-81
2022/08/13 07:59:06;;;;;;;2.95;1.40;;;;;;;;;;5109089;28;20131;-81
2022/08/13 08:01:33;;;;;;;2.22;1.35;;;;;;;;;;5106455;28;20089;-80
2022/08/13 08:04:02;;;;;;;2.80;1.20;;;;;;;;;;5107790;28;20016;-80
2022/08/13 08:06:29;;;;;;;2.95;1.30;;;;;;;;;;5107260;28;20516;-80
2022/08/13 08:08:56;;;;;;;1.30;1.20;;;;;;;;;;5108251;28;20664;-81
2022/08/13 08:14:08;;;;;;;1.98;1.38;;;;;;;;;;5109580;28;20129;-81
2022/08/13 08:16:36;;;;;;;2.15;1.30;;;;;;;;;;5106558;28;20024;-81
2022/08/13 08:19:03;;;;;;;2.70;1.13;;;;;;;;;;5108025;28;20107;-81
2022/08/13 08:21:29;;;;;;;2.30;1.20;;;;;;;;;;5105784;28;20028;-80
2022/08/13 08:23:59;;;;;;;1.52;1.27;;;;;;;;;;5107566;28;20016;-81
2022/08/13 08:26:29;;;;;;;1.77;1.23;;;;;;;;;;5106433;28;20130;-80
2022/08/13 08:28:56;;;;;;;1.70;1.00;;;;;;;;;;5108008;28;20412;-81
2022/08/13 08:31:23;;;;;;;1.80;1.30;;;;;;;;;;5106823;28;20087;-81
2022/08/13 08:33:50;;;;;;;1.52;1.40;;;;;;;;;;5107801;28;20023;-80
2022/08/13 08:36:15;;;;;;;1.20;1.00;;;;;;;;;;5107660;28;20093;-80
2022/08/13 08:44:20;;;;;;;1.27;1.00;;;;;;;;;;5089721;28;20509;-81
2022/08/13 08:46:47;;;;;;;;;;;;;;;;;;5094047;28;20042;-80
2022/08/13 08:49:13;;;;;;;1.10;0.95;;;;;;;;;;5095104;28;19904;-80
2022/08/13 08:51:40;;;;;;;3.05;1.30;;;;;;;;;;5093464;28;20051;-80
2022/08/13 08:54:07;;;;;;;1.17;1.08;;;;;;;;;;5093699;28;20050;-80
2022/08/13 08:56:34;;;;;;;1.20;1.10;;;;;;;;;;5093401;28;20415;-81
2022/08/13 08:59:01;;;;;;;1.17;1.07;;;;;;;;;;5095070;28;20059;-81
2022/08/13 09:01:27;;;;;;;1.55;1.17;;;;;;;;;;5093623;28;20069;-82
2022/08/13 09:03:56;;;;;;;2.50;1.00;;;;;;;;;;5094748;28;20049;-80
2022/08/13 09:06:23;;;;;;;2.60;1.27;;;;;;;;;;5093170;28;20052;-80
2022/08/13 09:08:50;;;;;;;1.05;0.98;;;;;;;;;;5093439;28;20025;-81
2022/08/13 09:11:19;;;;;;;2.05;1.05;;;;;;;;;;5094003;28;20028;-80
2022/08/13 09:13:47;;;;;;;1.85;1.10;;;;;;;;;;5090981;28;20051;-81
2022/08/13 09:16:13;;;;;;;0.80;0.80;;;;;;;;;;5094714;28;20547;-81
2022/08/13 09:18:40;;;;;;;1.00;0.90;;;;;;;;;;5091989;28;20059;-80
2022/08/13 09:21:06;;;;;;;1.38;1.23;;;;;;;;;;5093113;28;20049;-80
2022/08/13 09:23:36;;;;;;;1.83;1.20;;;;;;;;;;5092997;28;20024;-80
2022/08/13 09:26:05;;;;;;;1.17;1.10;;;;;;;;;;5091162;28;20077;-81
2022/08/13 09:28:32;;;;;;;1.20;1.10;;;;;;;;;;5092170;28;20032;-81
2022/08/13 09:30:58;;;;;;;1.85;1.10;;;;;;;;;;5091872;28;20044;-80
2022/08/13 09:33:31;;;;;;;1.00;1.00;;;;;;;;;;5092877;28;20093;-80
2022/08/13 09:35:57;;;;;;;1.33;0.80;;;;;;;;;;5090650;28;20020;-80
2022/08/13 09:38:24;;;;;;;3.13;1.15;;;;;;;;;;5092911;28;20359;-80
2022/08/13 09:40:55;;;;;;;1.52;1.20;;;;;;;;;;5090738;28;20024;-81
2022/08/13 09:43:31;;;;;;;2.08;0.90;;;;;;;;;;5092636;28;20549;-82
2022/08/13 09:45:57;;;;;;;1.15;0.80;;;;;;;;;;5091267;28;20127;-80
2022/08/13 09:48:27;;;;;;;1.08;0.98;;;;;;;;;;5093157;28;20024;-81
2022/08/13 09:50:53;;;;;;;1.00;0.85;;;;;;;;;;5093108;28;20469;-80
2022/08/13 09:53:19;;;;;;;0.95;0.93;;;;;;;;;;5092679;28;20024;-81
2022/08/13 09:55:45;;;;;;;1.10;1.00;;;;;;;;;;5091235;28;20027;-80
2022/08/13 09:58:13;;;;;;;0.90;0.90;;;;;;;;;;5093855;28;20062;-81
2022/08/13 10:00:41;;;;;;;0.90;0.90;;;;;;;;;;5091710;28;20477;-82
2022/08/13 10:03:10;;;;;;;0.93;0.93;;;;;;;;;;5091249;28;20050;-81
2022/08/13 10:05:36;;;;;;;1.45;0.90;;;;;;;;;;5091281;28;20032;-80
2022/08/13 10:08:04;;;;;;;1.10;0.90;;;;;;;;;;5092208;28;20397;-82
2022/08/13 10:10:30;;;;;;;1.33;1.13;;;;;;;;;;5091925;28;20020;-80
2022/08/13 10:12:57;;;;;;;1.60;1.00;;;;;;;;;;5091799;28;20408;-81
2022/08/13 10:15:23;;;;;;;0.98;0.98;;;;;;;;;;5093695;28;20020;-83
2022/08/13 10:17:49;;;;;;;1.10;1.00;;;;;;;;;;5093143;28;20057;-82
2022/08/13 10:20:36;;;;;;;1.10;1.00;;;;;;;;;;5091969;28;20023;-80
2022/08/13 10:23:03;;;;;;;1.35;1.20;;;;;;;;;;5093302;28;20470;-81
2022/08/13 10:25:30;;;;;;;1.27;1.17;;;;;;;;;;5092591;28;20048;-80
2022/08/13 10:27:56;;;;;;;1.65;1.20;;;;;;;;;;5092938;28;20020;-80
2022/08/13 10:30:25;;;;;;;0.90;0.90;;;;;;;;;;5092892;28;20024;-80
2022/08/13 10:32:55;;;;;;;0.90;0.90;;;;;;;;;;5091608;28;20022;-82
2022/08/13 10:35:25;;;;;;;1.00;1.00;;;;;;;;;;5091702;28;20026;-81
2022/08/13 10:37:57;;;;;;;1.08;1.00;;;;;;;;;;5092928;28;20020;-84
2022/08/13 10:40:23;;;;;;;1.38;1.05;;;;;;;;;;5088116;28;20039;-82
2022/08/13 10:42:51;;;;;;;0.90;0.90;;;;;;;;;;5092301;28;20450;-81
2022/08/13 10:45:18;;;;;;;1.45;1.35;;;;;;;;;;5091376;28;20050;-83
2022/08/13 10:47:46;;;;;;;1.75;1.20;;;;;;;;;;5091290;28;20028;-83
2022/08/13 10:50:13;;;;;;;0.85;0.85;;;;;;;;;;5090879;28;20074;-80
2022/08/13 10:52:39;;;;;;;0.80;0.80;;;;;;;;;;5091487;28;20115;-83
2022/08/13 10:55:08;;;;;;;1.05;0.90;;;;;;;;;;5092693;28;20493;-84
2022/08/13 10:57:34;;;;;;;1.02;1.02;;;;;;;;;;5091176;28;20538;-83
2022/08/13 11:00:00;;;;;;;1.23;0.90;;;;;;;;;;5092020;28;20481;-82
2022/08/13 11:02:27;;;;;;;1.17;0.98;;;;;;;;;;5088160;28;20028;-83
2022/08/13 11:04:53;;;;;;;1.35;1.00;;;;;;;;;;5091782;28;20486;-82
2022/08/13 11:07:20;;;;;;;1.30;1.20;;;;;;;;;;5091823;28;20108;-82
2022/08/13 11:09:46;;;;;;;1.30;0.98;;;;;;;;;;5092458;28;20028;-82
2022/08/13 11:12:12;;;;;;;0.90;0.90;;;;;;;;;;5091037;28;20028;-83
2022/08/13 11:14:41;;;;;;;1.10;1.00;;;;;;;;;;5091760;28;20043;-82
2022/08/13 11:17:09;;;;;;;1.55;1.20;;;;;;;;;;5088861;28;20024;-80
2022/08/13 11:19:38;;;;;;;4.05;1.10;;;;;;;;;;5090965;28;20042;-82
2022/08/13 11:22:04;;;;;;;3.33;1.10;;;;;;;;;;5090976;28;20016;-81
2022/08/13 11:24:30;;;;;;;1.33;1.10;;;;;;;;;;5092128;28;20031;-81
2022/08/13 11:26:56;;;;;;;2.10;1.30;;;;;;;;;;5089845;28;20363;-83
2022/08/13 11:29:30;;;;;;;0.93;0.90;;;;;;;;;;5092432;28;20024;-83
2022/08/13 11:31:56;;;;;;;1.65;1.02;;;;;;;;;;5090298;28;20500;-81
2022/08/13 11:34:22;;;;;;;1.30;1.20;;;;;;;;;;5087472;28;20016;-83
2022/08/13 11:36:48;;;;;;;1.00;1.00;;;;;;;;;;5091643;28;20246;-84
2022/08/13 11:39:15;;;;;;;0.90;0.90;;;;;;;;;;5090861;28;20123;-83
2022/08/13 11:41:41;;;;;;;3.35;1.40;;;;;;;;;;5090529;28;20103;-83
2022/08/13 11:44:07;;;;;;;1.33;0.98;;;;;;;;;;5090635;28;20107;-82
2022/08/13 11:46:33;;;;;;;1.20;1.10;;;;;;;;;;5091912;28;20028;-84
2022/08/13 11:48:59;;;;;;;1.98;1.55;;;;;;;;;;5092120;28;20024;-84
2022/08/13 11:51:25;;;;;;;1.27;1.17;;;;;;;;;;5090893;28;20547;-84
2022/08/13 11:53:51;;;;;;;2.22;1.02;;;;;;;;;;5090705;28;20020;-83
2022/08/13 11:56:17;;;;;;;1.40;1.30;;;;;;;;;;5091857;28;20121;-84
2022/08/13 11:58:46;;;;;;;1.17;0.90;;;;;;;;;;5091944;28;20466;-84
2022/08/13 12:01:12;;;;;;;1.20;1.10;;;;;;;;;;5088468;28;20051;-84
2022/08/13 12:03:39;;;;;;;2.35;1.13;;;;;;;;;;5090232;28;20412;-82
2022/08/13 12:06:06;;;;;;;1.10;1.00;;;;;;;;;;5088916;28;20028;-83
2022/08/13 12:08:32;;;;;;;1.65;1.20;;;;;;;;;;5091807;28;20025;-81
2022/08/13 12:10:58;;;;;;;1.55;1.00;;;;;;;;;;5091829;28;20024;-81
2022/08/13 12:13:24;;;;;;;3.78;1.20;;;;;;;;;;5092550;28;20013;-81
2022/08/13 12:15:50;;;;;;;1.80;1.10;;;;;;;;;;5093665;28;20020;-80
2022/08/13 12:18:17;;;;;;;2.65;1.30;;;;;;;;;;5095718;28;20103;-80
2022/08/13 12:20:44;;;;;;;2.25;1.00;;;;;;;;;;5092319;28;20025;-80
2022/08/13 12:23:10;;;;;;;1.35;1.25;;;;;;;;;;5094240;28;20340;-81
2022/08/13 12:25:36;;;;;;;3.35;1.35;;;;;;;;;;5094530;28;20444;-81
2022/08/13 12:28:22;;;;;;;1.40;1.17;;;;;;;;;;5093645;28;20034;-80
2022/08/13 12:30:53;;;;;;;1.52;1.20;;;;;;;;;;5094382;28;20028;-82
2022/08/13 12:33:20;;;;;;;1.65;1.27;;;;;;;;;;5094148;28;20020;-81
2022/08/13 12:35:46;;;;;;;1.30;1.20;;;;;;;;;;5091945;28;20055;-81
2022/08/13 12:38:13;;;;;;;1.70;1.08;;;;;;;;;;5093735;28;20016;-81
2022/08/13 12:40:39;;;;;;;1.58;1.10;;;;;;;;;;5092485;28;20049;-79
2022/08/13 12:43:06;;;;;;;1.20;1.10;;;;;;;;;;5093700;28;20016;-80
2022/08/13 12:45:33;;;;;;;2.20;1.25;;;;;;;;;;5094337;28;20115;-81
2022/08/13 12:48:06;;;;;;;1.80;1.20;;;;;;;;;;5093123;28;20478;-81
2022/08/13 12:50:33;;;;;;;1.67;1.20;;;;;;;;;;5093245;28;20067;-81
2022/08/13 12:52:59;;;;;;;1.23;1.13;;;;;;;;;;5094100;28;20024;-80
2022/08/13 12:55:25;;;;;;;1.83;1.13;;;;;;;;;;5093767;28;20049;-81
2022/08/13 12:57:51;;;;;;;2.05;1.10;;;;;;;;;;5091948;28;20115;-80
2022/08/13 13:00:17;;;;;;;1.60;1.23;;;;;;;;;;5093072;28;20043;-81
2022/08/13 13:02:43;;;;;;;1.33;1.17;;;;;;;;;;5093179;28;20020;-80
2022/08/13 13:05:09;;;;;;;1.92;1.30;;;;;;;;;;5094573;28;20020;-81
2022/08/13 13:07:35;;;;;;;1.33;1.10;;;;;;;;;;5093328;28;20030;-81
2022/08/13 13:10:02;;;;;;;1.90;1.25;;;;;;;;;;5092756;28;20020;-80
2022/08/13 13:12:28;;;;;;;1.30;1.20;;;;;;;;;;5079011;28;20055;-81
2022/08/13 13:14:54;;;;;;;1.30;1.20;;;;;;;;;;5093196;28;20458;-80
2022/08/13 13:17:20;;;;;;;1.23;1.13;;;;;;;;;;5093210;28;20024;-80
2022/08/13 13:19:47;;;;;;;1.88;1.20;;;;;;;;;;5093196;28;20106;-83
2022/08/13 13:22:13;;;;;;;2.55;1.15;;;;;;;;;;5093007;28;20016;-81
2022/08/13 13:24:39;;;;;;;1.40;1.30;;;;;;;;;;5092749;28;20032;-82
2022/08/13 13:27:05;;;;;;;2.42;1.40;;;;;;;;;;5092888;28;20113;-81
2022/08/13 13:29:32;;;;;;;1.27;1.17;;;;;;;;;;5092339;28;20365;-83
2022/08/13 13:32:02;;;;;;;2.13;1.27;;;;;;;;;;5091105;28;20043;-80
2022/08/13 13:34:29;;;;;;;1.38;1.23;;;;;;;;;;5092362;28;20020;-80
2022/08/13 13:36:56;;;;;;;1.45;1.17;;;;;;;;;;5094015;28;20475;-81
2022/08/13 13:39:23;;;;;;;1.40;1.30;;;;;;;;;;5092895;28;20493;-81
2022/08/13 13:41:49;;;;;;;1.30;1.25;;;;;;;;;;5090157;28;20119;-82
2022/08/13 13:44:15;;;;;;;1.23;1.15;;;;;;;;;;5092595;28;20039;-81
2022/08/13 13:46:41;;;;;;;1.38;1.27;;;;;;;;;;5091538;28;20122;-80
2022/08/13 13:49:07;;;;;;;2.58;1.30;;;;;;;;;;5091665;28;20541;-80
2022/08/13 13:51:33;;;;;;;1.20;1.10;;;;;;;;;;5091856;28;20134;-82
2022/08/13 13:53:59;;;;;;;2.50;1.15;;;;;;;;;;5092800;28;20076;-81
2022/08/13 13:56:25;;;;;;;3.42;1.10;;;;;;;;;;5092132;28;20020;-81
2022/08/13 13:58:54;;;;;;;1.38;1.27;;;;;;;;;;5093728;28;20035;-83
2022/08/13 14:01:20;;;;;;;1.30;1.20;;;;;;;;;;5089768;28;20105;-81
2022/08/13 14:03:47;;;;;;;1.85;1.20;;;;;;;;;;5092992;28;20054;-81
2022/08/13 14:06:18;;;;;;;1.10;1.00;;;;;;;;;;5092524;28;20470;-80
2022/08/13 14:08:49;;;;;;;1.30;1.20;;;;;;;;;;5093961;28;20050;-80
2022/08/13 14:11:16;;;;;;;1.40;1.30;;;;;;;;;;5091944;28;20031;-80
2022/08/13 14:13:42;;;;;;;1.45;1.33;;;;;;;;;;5093182;28;20042;-80
2022/08/13 14:16:10;;;;;;;2.03;1.45;;;;;;;;;;5090910;28;20048;-79
2022/08/13 14:18:37;;;;;;;1.92;1.35;;;;;;;;;;5092052;28;20017;-80
2022/08/13 14:21:05;;;;;;;1.40;1.30;;;;;;;;;;5089805;28;20036;-81
2022/08/13 14:23:31;;;;;;;1.42;1.23;;;;;;;;;;5092986;28;20020;-80
2022/08/13 14:25:58;;;;;;;1.17;1.08;;;;;;;;;;5090916;28;20097;-81
2022/08/13 14:28:25;;;;;;;2.10;1.40;;;;;;;;;;5091746;28;20016;-80
2022/08/13 14:30:52;;;;;;;1.40;1.30;;;;;;;;;;5091574;28;20024;-81
2022/08/13 14:33:19;;;;;;;1.50;1.20;;;;;;;;;;5091529;28;20450;-83
2022/08/13 14:35:45;;;;;;;1.30;1.20;;;;;;;;;;5092496;28;20107;-81
2022/08/13 14:38:15;;;;;;;1.77;1.50;;;;;;;;;;5091819;28;20070;-82
2022/08/13 14:40:41;;;;;;;1.42;1.33;;;;;;;;;;5092999;28;20023;-80
2022/08/13 14:43:07;;;;;;;1.40;1.30;;;;;;;;;;5091370;28;20031;-81
2022/08/13 14:45:41;;;;;;;1.52;1.35;;;;;;;;;;5092820;28;20036;-83
2022/08/13 14:48:17;;;;;;;1.85;1.27;;;;;;;;;;5091516;28;20024;-80
2022/08/13 14:50:45;;;;;;;1.45;1.35;;;;;;;;;;5091740;28;20371;-80
2022/08/13 14:53:12;;;;;;;1.20;1.10;;;;;;;;;;5091574;28;20031;-80
2022/08/13 14:55:40;;;;;;;1.20;1.20;;;;;;;;;;5090270;28;20020;-82
2022/08/13 14:58:06;;;;;;;1.13;1.10;;;;;;;;;;5091227;28;20024;-81
2022/08/13 15:00:32;;;;;;;1.75;1.30;;;;;;;;;;5090990;28;20035;-83
2022/08/13 15:02:59;;;;;;;2.00;1.40;;;;;;;;;;5090865;28;20028;-80